sensor_id;sensor_type;location;lat;lon;timestamp;P1;durP1;ratioP1;P2;durP2;ratioP2
14251;SDS011;7210;51.502;10.722;2022-10-16T00:01:42;2.23;;;1.73;;
14251;SDS011;7210;51.502;10.722;2022-10-16T00:04:09;4.13;;;1.90;;
14251;SDS011;7210;51.502;10.722;2022-10-16T00:06:38;1.50;;;1.40;;
14251;SDS011;7210;51.502;10.722;2022-10-16T00:09:06;1.83;;;1.73;;
14251;SDS011;7210;51.502;10.722;2022-10-16T00:11:34;1.80;;;1.70;;
14251;SDS011;7210;51.502;10.722;2022-10-16T00:14:05;1.93;;;1.83;;
14251;SDS011;7210;51.502;10.722;2022-10-16T00:16:36;3.27;;;1.73;;
14251;SDS011;7210;51.502;10.722;2022-10-16T00:19:04;1.67;;;1.50;;
14251;SDS011;7210;51.502;10.722;2022-10-16T00:21:32;1.90;;;1.80;;
14251;SDS011;7210;51.502;10.722;2022-10-16T00:24:02;2.00;;;1.70;;
14251;SDS011;7210;51.502;10.722;2022-10-16T00:26:33;4.27;;;1.90;;
14251;SDS011;7210;51.502;10.722;2022-10-16T00:29:03;2.60;;;1.80;;
14251;SDS011;7210;51.502;10.722;2022-10-16T00:31:31;2.80;;;1.80;;
14251;SDS011;7210;51.502;10.722;2022-10-16T00:34:00;2.30;;;1.80;;
14251;SDS011;7210;51.502;10.722;2022-10-16T00:36:27;1.90;;;1.73;;
14251;SDS011;7210;51.502;10.722;2022-10-16T00:38:56;2.20;;;1.60;;
14251;SDS011;7210;51.502;10.722;2022-10-16T00:41:27;2.40;;;2.20;;
14251;SDS011;7210;51.502;10.722;2022-10-16T00:43:56;5.80;;;2.30;;
14251;SDS011;7210;51.502;10.722;2022-10-16T00:46:26;2.10;;;1.90;;
14251;SDS011;7210;51.502;10.722;2022-10-16T00:49:02;2.10;;;1.90;;
14251;SDS011;7210;51.502;10.722;2022-10-16T00:51:35;2.07;;;1.73;;
14251;SDS011;7210;51.502;10.722;2022-10-16T00:54:06;2.00;;;1.70;;
14251;SDS011;7210;51.502;10.722;2022-10-16T00:56:45;2.63;;;1.90;;
14251;SDS011;7210;51.502;10.722;2022-10-16T00:59:15;1.50;;;1.40;;
14251;SDS011;7210;51.502;10.722;2022-10-16T01:01:46;2.83;;;1.70;;
14251;SDS011;7210;51.502;10.722;2022-10-16T01:04:13;1.60;;;1.50;;
14251;SDS011;7210;51.502;10.722;2022-10-16T01:06:42;1.80;;;1.57;;
14251;SDS011;7210;51.502;10.722;2022-10-16T01:09:22;2.47;;;1.60;;
14251;SDS011;7210;51.502;10.722;2022-10-16T01:12:01;1.70;;;1.60;;
14251;SDS011;7210;51.502;10.722;2022-10-16T01:14:40;1.57;;;1.47;;
14251;SDS011;7210;51.502;10.722;2022-10-16T01:17:15;1.50;;;1.40;;
14251;SDS011;7210;51.502;10.722;2022-10-16T01:19:51;1.80;;;1.70;;
14251;SDS011;7210;51.502;10.722;2022-10-16T01:22:37;1.70;;;1.47;;
14251;SDS011;7210;51.502;10.722;2022-10-16T01:25:19;2.07;;;1.60;;
14251;SDS011;7210;51.502;10.722;2022-10-16T01:28:03;2.97;;;1.37;;
14251;SDS011;7210;51.502;10.722;2022-10-16T01:30:37;3.73;;;1.57;;
14251;SDS011;7210;51.502;10.722;2022-10-16T01:33:09;2.27;;;1.57;;
14251;SDS011;7210;51.502;10.722;2022-10-16T01:35:45;2.30;;;1.80;;
14251;SDS011;7210;51.502;10.722;2022-10-16T01:38:19;1.90;;;1.77;;
14251;SDS011;7210;51.502;10.722;2022-10-16T01:40:54;2.00;;;1.80;;
14251;SDS011;7210;51.502;10.722;2022-10-16T01:43:35;2.67;;;2.17;;
14251;SDS011;7210;51.502;10.722;2022-10-16T01:46:06;2.13;;;1.77;;
14251;SDS011;7210;51.502;10.722;2022-10-16T01:48:36;1.93;;;1.83;;
14251;SDS011;7210;51.502;10.722;2022-10-16T01:51:05;2.20;;;2.00;;
14251;SDS011;7210;51.502;10.722;2022-10-16T01:53:36;2.77;;;1.90;;
14251;SDS011;7210;51.502;10.722;2022-10-16T01:56:08;2.00;;;1.90;;
14251;SDS011;7210;51.502;10.722;2022-10-16T01:58:42;1.90;;;1.80;;
14251;SDS011;7210;51.502;10.722;2022-10-16T02:01:16;1.80;;;1.70;;
14251;SDS011;7210;51.502;10.722;2022-10-16T02:03:49;2.00;;;1.90;;
14251;SDS011;7210;51.502;10.722;2022-10-16T02:06:23;2.20;;;2.00;;
14251;SDS011;7210;51.502;10.722;2022-10-16T02:08:56;1.83;;;1.70;;
14251;SDS011;7210;51.502;10.722;2022-10-16T02:11:23;1.70;;;1.60;;
14251;SDS011;7210;51.502;10.722;2022-10-16T02:13:53;1.90;;;1.80;;
14251;SDS011;7210;51.502;10.722;2022-10-16T02:16:32;1.70;;;1.50;;
14251;SDS011;7210;51.502;10.722;2022-10-16T02:19:02;3.10;;;2.57;;
14251;SDS011;7210;51.502;10.722;2022-10-16T02:21:32;1.80;;;1.70;;
14251;SDS011;7210;51.502;10.722;2022-10-16T02:24:10;2.03;;;1.70;;
14251;SDS011;7210;51.502;10.722;2022-10-16T02:26:47;2.20;;;2.00;;
14251;SDS011;7210;51.502;10.722;2022-10-16T02:29:24;2.40;;;2.17;;
14251;SDS011;7210;51.502;10.722;2022-10-16T02:31:54;2.23;;;1.80;;
14251;SDS011;7210;51.502;10.722;2022-10-16T02:34:25;2.77;;;2.00;;
14251;SDS011;7210;51.502;10.722;2022-10-16T02:37:00;3.30;;;2.20;;
14251;SDS011;7210;51.502;10.722;2022-10-16T02:39:31;2.60;;;2.37;;
14251;SDS011;7210;51.502;10.722;2022-10-16T02:42:00;2.90;;;2.30;;
14251;SDS011;7210;51.502;10.722;2022-10-16T02:44:29;2.67;;;2.20;;
14251;SDS011;7210;51.502;10.722;2022-10-16T02:46:57;2.50;;;2.20;;
14251;SDS011;7210;51.502;10.722;2022-10-16T02:49:24;2.70;;;1.90;;
14251;SDS011;7210;51.502;10.722;2022-10-16T02:51:52;2.23;;;2.00;;
14251;SDS011;7210;51.502;10.722;2022-10-16T02:54:19;2.93;;;2.30;;
14251;SDS011;7210;51.502;10.722;2022-10-16T02:56:46;2.03;;;1.93;;
14251;SDS011;7210;51.502;10.722;2022-10-16T02:59:14;2.60;;;2.40;;
14251;SDS011;7210;51.502;10.722;2022-10-16T03:01:42;2.90;;;2.27;;
14251;SDS011;7210;51.502;10.722;2022-10-16T03:04:10;2.20;;;2.00;;
14251;SDS011;7210;51.502;10.722;2022-10-16T03:06:37;1.90;;;1.80;;
14251;SDS011;7210;51.502;10.722;2022-10-16T03:09:04;3.50;;;2.17;;
14251;SDS011;7210;51.502;10.722;2022-10-16T03:11:32;2.23;;;1.97;;
14251;SDS011;7210;51.502;10.722;2022-10-16T03:13:59;3.47;;;2.10;;
14251;SDS011;7210;51.502;10.722;2022-10-16T03:16:26;2.30;;;1.90;;
14251;SDS011;7210;51.502;10.722;2022-10-16T03:18:55;2.63;;;1.80;;
14251;SDS011;7210;51.502;10.722;2022-10-16T03:21:22;3.37;;;1.87;;
14251;SDS011;7210;51.502;10.722;2022-10-16T03:23:50;2.00;;;1.90;;
14251;SDS011;7210;51.502;10.722;2022-10-16T03:26:17;2.57;;;2.10;;
14251;SDS011;7210;51.502;10.722;2022-10-16T03:28:50;2.10;;;2.00;;
14251;SDS011;7210;51.502;10.722;2022-10-16T03:31:17;2.30;;;1.90;;
14251;SDS011;7210;51.502;10.722;2022-10-16T03:33:44;2.57;;;2.37;;
14251;SDS011;7210;51.502;10.722;2022-10-16T03:36:13;2.83;;;2.13;;
14251;SDS011;7210;51.502;10.722;2022-10-16T03:38:40;2.50;;;2.30;;
14251;SDS011;7210;51.502;10.722;2022-10-16T03:41:07;2.40;;;2.20;;
14251;SDS011;7210;51.502;10.722;2022-10-16T03:43:35;2.83;;;2.40;;
14251;SDS011;7210;51.502;10.722;2022-10-16T03:46:02;2.97;;;2.17;;
14251;SDS011;7210;51.502;10.722;2022-10-16T03:48:29;4.47;;;2.70;;
14251;SDS011;7210;51.502;10.722;2022-10-16T03:50:57;2.60;;;2.40;;
14251;SDS011;7210;51.502;10.722;2022-10-16T03:53:26;2.53;;;2.30;;
14251;SDS011;7210;51.502;10.722;2022-10-16T03:55:53;2.93;;;2.40;;
14251;SDS011;7210;51.502;10.722;2022-10-16T03:58:20;2.83;;;2.60;;
14251;SDS011;7210;51.502;10.722;2022-10-16T04:00:48;2.70;;;2.50;;
14251;SDS011;7210;51.502;10.722;2022-10-16T04:03:15;2.47;;;2.20;;
14251;SDS011;7210;51.502;10.722;2022-10-16T04:05:44;5.90;;;2.70;;
14251;SDS011;7210;51.502;10.722;2022-10-16T04:08:11;3.50;;;3.17;;
14251;SDS011;7210;51.502;10.722;2022-10-16T04:10:40;2.60;;;2.50;;
14251;SDS011;7210;51.502;10.722;2022-10-16T04:13:09;3.87;;;2.70;;
14251;SDS011;7210;51.502;10.722;2022-10-16T04:15:36;2.77;;;2.57;;
14251;SDS011;7210;51.502;10.722;2022-10-16T04:18:04;2.57;;;2.37;;
14251;SDS011;7210;51.502;10.722;2022-10-16T04:20:32;3.57;;;2.80;;
14251;SDS011;7210;51.502;10.722;2022-10-16T04:23:00;3.43;;;2.20;;
14251;SDS011;7210;51.502;10.722;2022-10-16T04:25:27;4.63;;;2.70;;
14251;SDS011;7210;51.502;10.722;2022-10-16T04:27:56;2.80;;;2.60;;
14251;SDS011;7210;51.502;10.722;2022-10-16T04:30:24;3.93;;;2.30;;
14251;SDS011;7210;51.502;10.722;2022-10-16T04:32:52;3.47;;;2.50;;
14251;SDS011;7210;51.502;10.722;2022-10-16T04:35:20;2.40;;;2.30;;
14251;SDS011;7210;51.502;10.722;2022-10-16T04:37:48;2.87;;;2.67;;
14251;SDS011;7210;51.502;10.722;2022-10-16T04:40:15;3.50;;;3.20;;
14251;SDS011;7210;51.502;10.722;2022-10-16T04:42:43;3.30;;;3.10;;
14251;SDS011;7210;51.502;10.722;2022-10-16T04:45:11;3.37;;;3.17;;
14251;SDS011;7210;51.502;10.722;2022-10-16T04:47:38;3.40;;;3.20;;
14251;SDS011;7210;51.502;10.722;2022-10-16T04:50:06;3.40;;;3.10;;
14251;SDS011;7210;51.502;10.722;2022-10-16T04:52:34;3.60;;;3.30;;
14251;SDS011;7210;51.502;10.722;2022-10-16T04:55:02;3.60;;;3.37;;
14251;SDS011;7210;51.502;10.722;2022-10-16T04:57:30;3.90;;;3.60;;
14251;SDS011;7210;51.502;10.722;2022-10-16T04:59:58;5.80;;;4.00;;
14251;SDS011;7210;51.502;10.722;2022-10-16T05:02:27;3.97;;;3.63;;
14251;SDS011;7210;51.502;10.722;2022-10-16T05:04:54;5.63;;;4.07;;
14251;SDS011;7210;51.502;10.722;2022-10-16T05:07:21;3.90;;;3.60;;
14251;SDS011;7210;51.502;10.722;2022-10-16T05:09:49;4.10;;;3.80;;
14251;SDS011;7210;51.502;10.722;2022-10-16T05:12:16;4.00;;;3.70;;
14251;SDS011;7210;51.502;10.722;2022-10-16T05:14:44;4.23;;;3.90;;
14251;SDS011;7210;51.502;10.722;2022-10-16T05:17:11;4.00;;;3.60;;
14251;SDS011;7210;51.502;10.722;2022-10-16T05:19:40;4.07;;;3.67;;
14251;SDS011;7210;51.502;10.722;2022-10-16T05:22:08;4.50;;;4.00;;
14251;SDS011;7210;51.502;10.722;2022-10-16T05:24:38;6.53;;;4.13;;
14251;SDS011;7210;51.502;10.722;2022-10-16T05:27:05;3.37;;;3.07;;
14251;SDS011;7210;51.502;10.722;2022-10-16T05:29:32;3.73;;;3.33;;
14251;SDS011;7210;51.502;10.722;2022-10-16T05:32:00;3.73;;;3.30;;
14251;SDS011;7210;51.502;10.722;2022-10-16T05:34:27;5.50;;;3.13;;
14251;SDS011;7210;51.502;10.722;2022-10-16T05:36:56;3.60;;;2.87;;
14251;SDS011;7210;51.502;10.722;2022-10-16T05:39:24;4.03;;;3.23;;
14251;SDS011;7210;51.502;10.722;2022-10-16T05:41:51;3.27;;;2.83;;
14251;SDS011;7210;51.502;10.722;2022-10-16T05:44:18;3.00;;;2.80;;
14251;SDS011;7210;51.502;10.722;2022-10-16T05:46:46;3.00;;;2.77;;
14251;SDS011;7210;51.502;10.722;2022-10-16T05:49:13;3.27;;;2.93;;
14251;SDS011;7210;51.502;10.722;2022-10-16T05:51:44;4.90;;;3.20;;
14251;SDS011;7210;51.502;10.722;2022-10-16T05:54:12;3.33;;;2.80;;
14251;SDS011;7210;51.502;10.722;2022-10-16T05:56:40;2.60;;;2.40;;
14251;SDS011;7210;51.502;10.722;2022-10-16T05:59:07;2.60;;;2.40;;
14251;SDS011;7210;51.502;10.722;2022-10-16T06:01:38;3.07;;;2.40;;
14251;SDS011;7210;51.502;10.722;2022-10-16T06:04:05;4.33;;;2.50;;
14251;SDS011;7210;51.502;10.722;2022-10-16T06:06:32;2.60;;;2.40;;
14251;SDS011;7210;51.502;10.722;2022-10-16T06:09:01;2.97;;;2.77;;
14251;SDS011;7210;51.502;10.722;2022-10-16T06:11:32;3.10;;;2.90;;
14251;SDS011;7210;51.502;10.722;2022-10-16T06:14:00;5.77;;;5.37;;
14251;SDS011;7210;51.502;10.722;2022-10-16T06:16:32;6.43;;;5.67;;
14251;SDS011;7210;51.502;10.722;2022-10-16T06:19:00;5.50;;;5.00;;
14251;SDS011;7210;51.502;10.722;2022-10-16T06:21:31;8.40;;;5.53;;
14251;SDS011;7210;51.502;10.722;2022-10-16T06:23:59;7.87;;;6.17;;
14251;SDS011;7210;51.502;10.722;2022-10-16T06:26:27;5.27;;;4.67;;
14251;SDS011;7210;51.502;10.722;2022-10-16T06:28:58;5.10;;;4.67;;
14251;SDS011;7210;51.502;10.722;2022-10-16T06:31:26;6.53;;;5.00;;
14251;SDS011;7210;51.502;10.722;2022-10-16T06:33:56;5.57;;;4.17;;
14251;SDS011;7210;51.502;10.722;2022-10-16T06:36:24;5.93;;;5.27;;
14251;SDS011;7210;51.502;10.722;2022-10-16T06:38:52;6.00;;;5.40;;
14251;SDS011;7210;51.502;10.722;2022-10-16T06:41:21;6.60;;;5.70;;
14251;SDS011;7210;51.502;10.722;2022-10-16T06:43:50;8.30;;;6.63;;
14251;SDS011;7210;51.502;10.722;2022-10-16T06:46:21;5.83;;;5.13;;
14251;SDS011;7210;51.502;10.722;2022-10-16T06:48:56;5.67;;;5.17;;
14251;SDS011;7210;51.502;10.722;2022-10-16T06:51:23;6.40;;;5.80;;
14251;SDS011;7210;51.502;10.722;2022-10-16T06:53:52;8.73;;;7.53;;
14251;SDS011;7210;51.502;10.722;2022-10-16T06:56:23;8.60;;;7.80;;
14251;SDS011;7210;51.502;10.722;2022-10-16T06:58:52;6.63;;;5.80;;
14251;SDS011;7210;51.502;10.722;2022-10-16T07:01:22;6.90;;;6.10;;
14251;SDS011;7210;51.502;10.722;2022-10-16T07:03:50;6.30;;;5.53;;
14251;SDS011;7210;51.502;10.722;2022-10-16T07:06:19;5.83;;;5.33;;
14251;SDS011;7210;51.502;10.722;2022-10-16T07:08:49;6.40;;;5.80;;
14251;SDS011;7210;51.502;10.722;2022-10-16T07:11:18;5.07;;;3.70;;
14251;SDS011;7210;51.502;10.722;2022-10-16T07:13:47;3.73;;;3.43;;
14251;SDS011;7210;51.502;10.722;2022-10-16T07:16:16;3.17;;;2.67;;
14251;SDS011;7210;51.502;10.722;2022-10-16T07:18:47;2.87;;;2.67;;
14251;SDS011;7210;51.502;10.722;2022-10-16T07:21:17;4.83;;;3.10;;
14251;SDS011;7210;51.502;10.722;2022-10-16T07:23:49;5.13;;;2.80;;
14251;SDS011;7210;51.502;10.722;2022-10-16T07:26:17;8.53;;;2.80;;
14251;SDS011;7210;51.502;10.722;2022-10-16T07:28:44;2.60;;;2.40;;
14251;SDS011;7210;51.502;10.722;2022-10-16T07:31:14;3.30;;;2.20;;
14251;SDS011;7210;51.502;10.722;2022-10-16T07:33:46;3.70;;;2.20;;
14251;SDS011;7210;51.502;10.722;2022-10-16T07:36:18;2.20;;;1.97;;
14251;SDS011;7210;51.502;10.722;2022-10-16T07:38:47;3.13;;;2.17;;
14251;SDS011;7210;51.502;10.722;2022-10-16T07:41:15;3.60;;;2.10;;
14251;SDS011;7210;51.502;10.722;2022-10-16T07:43:45;2.03;;;1.93;;
14251;SDS011;7210;51.502;10.722;2022-10-16T07:46:13;2.30;;;2.03;;
14251;SDS011;7210;51.502;10.722;2022-10-16T07:48:41;2.20;;;2.00;;
14251;SDS011;7210;51.502;10.722;2022-10-16T07:51:13;7.80;;;2.10;;
14251;SDS011;7210;51.502;10.722;2022-10-16T07:53:44;2.53;;;1.93;;
14251;SDS011;7210;51.502;10.722;2022-10-16T07:56:12;1.97;;;1.87;;
14251;SDS011;7210;51.502;10.722;2022-10-16T07:58:39;2.57;;;2.00;;
14251;SDS011;7210;51.502;10.722;2022-10-16T08:01:08;2.63;;;1.80;;
14251;SDS011;7210;51.502;10.722;2022-10-16T08:03:38;2.13;;;1.90;;
14251;SDS011;7210;51.502;10.722;2022-10-16T08:06:08;2.73;;;2.00;;
14251;SDS011;7210;51.502;10.722;2022-10-16T08:08:37;3.33;;;1.90;;
14251;SDS011;7210;51.502;10.722;2022-10-16T08:11:04;3.63;;;1.80;;
14251;SDS011;7210;51.502;10.722;2022-10-16T08:13:31;2.70;;;1.80;;
14251;SDS011;7210;51.502;10.722;2022-10-16T08:15:59;2.70;;;1.67;;
14251;SDS011;7210;51.502;10.722;2022-10-16T08:18:28;2.43;;;1.60;;
14251;SDS011;7210;51.502;10.722;2022-10-16T08:20:56;3.90;;;1.80;;
14251;SDS011;7210;51.502;10.722;2022-10-16T08:23:25;2.47;;;1.43;;
14251;SDS011;7210;51.502;10.722;2022-10-16T08:25:55;4.20;;;1.50;;
14251;SDS011;7210;51.502;10.722;2022-10-16T08:28:28;2.90;;;1.60;;
14251;SDS011;7210;51.502;10.722;2022-10-16T08:30:55;1.40;;;1.23;;
14251;SDS011;7210;51.502;10.722;2022-10-16T08:33:22;1.40;;;1.30;;
14251;SDS011;7210;51.502;10.722;2022-10-16T08:35:50;1.47;;;1.37;;
14251;SDS011;7210;51.502;10.722;2022-10-16T08:38:19;1.83;;;1.40;;
14251;SDS011;7210;51.502;10.722;2022-10-16T08:40:47;1.47;;;1.27;;
14251;SDS011;7210;51.502;10.722;2022-10-16T08:43:20;1.77;;;1.27;;
14251;SDS011;7210;51.502;10.722;2022-10-16T08:46:14;1.40;;;1.30;;
14251;SDS011;7210;51.502;10.722;2022-10-16T08:48:57;3.47;;;1.20;;
14251;SDS011;7210;51.502;10.722;2022-10-16T08:51:27;1.53;;;1.17;;
14251;SDS011;7210;51.502;10.722;2022-10-16T08:53:59;2.00;;;1.00;;
14251;SDS011;7210;51.502;10.722;2022-10-16T08:56:30;1.40;;;1.10;;
14251;SDS011;7210;51.502;10.722;2022-10-16T08:58:59;1.00;;;1.00;;
14251;SDS011;7210;51.502;10.722;2022-10-16T09:01:38;1.17;;;1.07;;
14251;SDS011;7210;51.502;10.722;2022-10-16T09:04:30;1.40;;;1.00;;
14251;SDS011;7210;51.502;10.722;2022-10-16T09:07:24;1.03;;;0.93;;
14251;SDS011;7210;51.502;10.722;2022-10-16T09:10:08;2.07;;;1.30;;
14251;SDS011;7210;51.502;10.722;2022-10-16T09:12:52;1.20;;;1.10;;
14251;SDS011;7210;51.502;10.722;2022-10-16T09:15:33;1.30;;;1.20;;
14251;SDS011;7210;51.502;10.722;2022-10-16T09:18:07;0.80;;;0.80;;
14251;SDS011;7210;51.502;10.722;2022-10-16T09:20:46;2.10;;;0.97;;
14251;SDS011;7210;51.502;10.722;2022-10-16T09:23:22;0.90;;;0.90;;
14251;SDS011;7210;51.502;10.722;2022-10-16T09:25:54;2.77;;;1.00;;
14251;SDS011;7210;51.502;10.722;2022-10-16T09:28:24;1.80;;;1.10;;
14251;SDS011;7210;51.502;10.722;2022-10-16T09:30:57;1.90;;;1.10;;
14251;SDS011;7210;51.502;10.722;2022-10-16T09:33:25;1.67;;;0.90;;
14251;SDS011;7210;51.502;10.722;2022-10-16T09:36:00;2.10;;;0.90;;
14251;SDS011;7210;51.502;10.722;2022-10-16T09:38:32;1.00;;;1.00;;
14251;SDS011;7210;51.502;10.722;2022-10-16T09:41:02;1.73;;;1.00;;
14251;SDS011;7210;51.502;10.722;2022-10-16T09:43:46;1.33;;;1.00;;
14251;SDS011;7210;51.502;10.722;2022-10-16T09:46:24;2.03;;;1.00;;
14251;SDS011;7210;51.502;10.722;2022-10-16T09:48:55;1.27;;;1.10;;
14251;SDS011;7210;51.502;10.722;2022-10-16T09:51:26;2.60;;;1.07;;
14251;SDS011;7210;51.502;10.722;2022-10-16T09:53:58;1.00;;;0.93;;
14251;SDS011;7210;51.502;10.722;2022-10-16T09:56:28;2.67;;;1.10;;
14251;SDS011;7210;51.502;10.722;2022-10-16T09:58:59;1.53;;;0.90;;
14251;SDS011;7210;51.502;10.722;2022-10-16T10:01:31;1.57;;;1.10;;
14251;SDS011;7210;51.502;10.722;2022-10-16T10:04:05;0.90;;;0.80;;
14251;SDS011;7210;51.502;10.722;2022-10-16T10:06:34;1.10;;;0.93;;
14251;SDS011;7210;51.502;10.722;2022-10-16T10:09:13;1.90;;;1.00;;
14251;SDS011;7210;51.502;10.722;2022-10-16T10:11:49;1.10;;;1.00;;
14251;SDS011;7210;51.502;10.722;2022-10-16T10:14:22;1.53;;;0.80;;
14251;SDS011;7210;51.502;10.722;2022-10-16T10:17:13;0.90;;;0.90;;
14251;SDS011;7210;51.502;10.722;2022-10-16T10:19:46;1.40;;;1.00;;
14251;SDS011;7210;51.502;10.722;2022-10-16T10:22:22;1.03;;;0.93;;
14251;SDS011;7210;51.502;10.722;2022-10-16T10:24:55;1.00;;;0.90;;
14251;SDS011;7210;51.502;10.722;2022-10-16T10:27:30;0.90;;;0.90;;
14251;SDS011;7210;51.502;10.722;2022-10-16T10:30:15;1.43;;;0.90;;
14251;SDS011;7210;51.502;10.722;2022-10-16T10:32:55;1.10;;;1.00;;
14251;SDS011;7210;51.502;10.722;2022-10-16T10:35:44;1.90;;;0.90;;
14251;SDS011;7210;51.502;10.722;2022-10-16T10:38:27;2.00;;;0.77;;
14251;SDS011;7210;51.502;10.722;2022-10-16T10:41:18;1.97;;;0.70;;
14251;SDS011;7210;51.502;10.722;2022-10-16T10:44:30;0.80;;;0.80;;
14251;SDS011;7210;51.502;10.722;2022-10-16T10:47:22;0.73;;;0.70;;
14251;SDS011;7210;51.502;10.722;2022-10-16T10:50:10;0.70;;;0.70;;
14251;SDS011;7210;51.502;10.722;2022-10-16T10:52:52;1.13;;;0.90;;
14251;SDS011;7210;51.502;10.722;2022-10-16T10:55:31;2.20;;;0.80;;
14251;SDS011;7210;51.502;10.722;2022-10-16T10:58:22;1.33;;;0.80;;
14251;SDS011;7210;51.502;10.722;2022-10-16T11:01:21;3.07;;;0.90;;
14251;SDS011;7210;51.502;10.722;2022-10-16T11:04:08;0.60;;;0.60;;
14251;SDS011;7210;51.502;10.722;2022-10-16T11:07:15;0.97;;;0.60;;
14251;SDS011;7210;51.502;10.722;2022-10-16T11:09:47;0.80;;;0.80;;
14251;SDS011;7210;51.502;10.722;2022-10-16T11:12:23;0.60;;;0.60;;
14251;SDS011;7210;51.502;10.722;2022-10-16T11:14:58;0.70;;;0.67;;
14251;SDS011;7210;51.502;10.722;2022-10-16T11:17:38;2.27;;;0.90;;
14251;SDS011;7210;51.502;10.722;2022-10-16T11:20:13;0.70;;;0.70;;
14251;SDS011;7210;51.502;10.722;2022-10-16T11:22:48;0.60;;;0.60;;
14251;SDS011;7210;51.502;10.722;2022-10-16T11:25:23;0.70;;;0.70;;
14251;SDS011;7210;51.502;10.722;2022-10-16T11:27:54;0.73;;;0.73;;
14251;SDS011;7210;51.502;10.722;2022-10-16T11:30:33;0.77;;;0.70;;
14251;SDS011;7210;51.502;10.722;2022-10-16T11:33:14;1.13;;;0.70;;
14251;SDS011;7210;51.502;10.722;2022-10-16T11:36:04;0.83;;;0.63;;
14251;SDS011;7210;51.502;10.722;2022-10-16T11:38:45;0.70;;;0.70;;
14251;SDS011;7210;51.502;10.722;2022-10-16T11:41:24;0.80;;;0.63;;
14251;SDS011;7210;51.502;10.722;2022-10-16T11:44:06;2.30;;;0.77;;
14251;SDS011;7210;51.502;10.722;2022-10-16T11:46:48;0.73;;;0.40;;
14251;SDS011;7210;51.502;10.722;2022-10-16T11:49:28;0.90;;;0.80;;
14251;SDS011;7210;51.502;10.722;2022-10-16T11:52:01;2.00;;;0.60;;
14251;SDS011;7210;51.502;10.722;2022-10-16T11:54:44;1.67;;;0.70;;
14251;SDS011;7210;51.502;10.722;2022-10-16T11:57:21;0.77;;;0.70;;
14251;SDS011;7210;51.502;10.722;2022-10-16T11:59:54;1.37;;;0.53;;
14251;SDS011;7210;51.502;10.722;2022-10-16T12:02:40;1.97;;;0.80;;
14251;SDS011;7210;51.502;10.722;2022-10-16T12:05:23;1.17;;;0.60;;
14251;SDS011;7210;51.502;10.722;2022-10-16T12:08:06;0.90;;;0.67;;
14251;SDS011;7210;51.502;10.722;2022-10-16T12:10:39;3.10;;;0.93;;
14251;SDS011;7210;51.502;10.722;2022-10-16T12:16:04;1.23;;;0.70;;
14251;SDS011;7210;51.502;10.722;2022-10-16T12:19:02;1.37;;;0.70;;
14251;SDS011;7210;51.502;10.722;2022-10-16T12:21:37;0.70;;;0.70;;
14251;SDS011;7210;51.502;10.722;2022-10-16T12:24:05;0.70;;;0.70;;
14251;SDS011;7210;51.502;10.722;2022-10-16T12:26:49;1.53;;;0.73;;
14251;SDS011;7210;51.502;10.722;2022-10-16T12:29:22;1.33;;;0.60;;
14251;SDS011;7210;51.502;10.722;2022-10-16T12:31:59;0.73;;;0.70;;
14251;SDS011;7210;51.502;10.722;2022-10-16T12:34:29;1.03;;;0.80;;
14251;SDS011;7210;51.502;10.722;2022-10-16T12:37:08;1.20;;;0.97;;
14251;SDS011;7210;51.502;10.722;2022-10-16T12:39:41;0.93;;;0.80;;
14251;SDS011;7210;51.502;10.722;2022-10-16T12:42:32;1.70;;;0.70;;
14251;SDS011;7210;51.502;10.722;2022-10-16T12:45:00;4.40;;;1.00;;
14251;SDS011;7210;51.502;10.722;2022-10-16T12:47:50;3.03;;;2.10;;
14251;SDS011;7210;51.502;10.722;2022-10-16T12:50:25;1.10;;;0.73;;
14251;SDS011;7210;51.502;10.722;2022-10-16T12:52:57;0.97;;;0.70;;
14251;SDS011;7210;51.502;10.722;2022-10-16T12:55:25;0.87;;;0.87;;
14251;SDS011;7210;51.502;10.722;2022-10-16T12:58:05;0.90;;;0.70;;
14251;SDS011;7210;51.502;10.722;2022-10-16T13:00:56;1.70;;;0.80;;
14251;SDS011;7210;51.502;10.722;2022-10-16T13:03:43;1.40;;;0.70;;
14251;SDS011;7210;51.502;10.722;2022-10-16T13:06:38;0.70;;;0.70;;
14251;SDS011;7210;51.502;10.722;2022-10-16T13:09:18;1.27;;;0.60;;
14251;SDS011;7210;51.502;10.722;2022-10-16T13:12:01;1.10;;;0.70;;
14251;SDS011;7210;51.502;10.722;2022-10-16T13:17:52;1.47;;;1.00;;
14251;SDS011;7210;51.502;10.722;2022-10-16T13:20:34;1.10;;;0.90;;
14251;SDS011;7210;51.502;10.722;2022-10-16T13:23:29;2.43;;;2.03;;
14251;SDS011;7210;51.502;10.722;2022-10-16T13:26:08;0.83;;;0.83;;
14251;SDS011;7210;51.502;10.722;2022-10-16T13:28:48;0.90;;;0.70;;
14251;SDS011;7210;51.502;10.722;2022-10-16T13:31:19;2.37;;;0.80;;
14251;SDS011;7210;51.502;10.722;2022-10-16T13:33:51;2.00;;;0.80;;
14251;SDS011;7210;51.502;10.722;2022-10-16T13:36:22;5.00;;;4.23;;
14251;SDS011;7210;51.502;10.722;2022-10-16T13:38:59;1.43;;;1.33;;
14251;SDS011;7210;51.502;10.722;2022-10-16T13:41:37;0.87;;;0.70;;
14251;SDS011;7210;51.502;10.722;2022-10-16T13:44:04;1.47;;;0.70;;
14251;SDS011;7210;51.502;10.722;2022-10-16T13:46:42;1.83;;;0.90;;
14251;SDS011;7210;51.502;10.722;2022-10-16T13:49:13;1.00;;;0.63;;
14251;SDS011;7210;51.502;10.722;2022-10-16T13:51:53;3.33;;;1.33;;
14251;SDS011;7210;51.502;10.722;2022-10-16T13:54:23;1.73;;;0.70;;
14251;SDS011;7210;51.502;10.722;2022-10-16T13:56:51;2.47;;;1.60;;
14251;SDS011;7210;51.502;10.722;2022-10-16T13:59:23;4.03;;;1.50;;
14251;SDS011;7210;51.502;10.722;2022-10-16T14:01:55;1.47;;;0.90;;
14251;SDS011;7210;51.502;10.722;2022-10-16T14:04:31;1.67;;;1.00;;
14251;SDS011;7210;51.502;10.722;2022-10-16T14:06:59;0.80;;;0.70;;
14251;SDS011;7210;51.502;10.722;2022-10-16T14:09:27;0.80;;;0.80;;
14251;SDS011;7210;51.502;10.722;2022-10-16T14:11:57;1.30;;;1.17;;
14251;SDS011;7210;51.502;10.722;2022-10-16T14:14:30;1.57;;;1.47;;
14251;SDS011;7210;51.502;10.722;2022-10-16T14:17:14;0.90;;;0.90;;
14251;SDS011;7210;51.502;10.722;2022-10-16T14:19:46;0.80;;;0.70;;
14251;SDS011;7210;51.502;10.722;2022-10-16T14:22:20;2.50;;;0.87;;
14251;SDS011;7210;51.502;10.722;2022-10-16T14:24:56;1.73;;;1.00;;
14251;SDS011;7210;51.502;10.722;2022-10-16T14:27:26;0.93;;;0.80;;
14251;SDS011;7210;51.502;10.722;2022-10-16T14:30:16;1.10;;;1.00;;
14251;SDS011;7210;51.502;10.722;2022-10-16T14:32:54;1.10;;;0.80;;
14251;SDS011;7210;51.502;10.722;2022-10-16T14:35:24;2.30;;;0.80;;
14251;SDS011;7210;51.502;10.722;2022-10-16T14:37:56;2.07;;;1.00;;
14251;SDS011;7210;51.502;10.722;2022-10-16T14:40:28;1.10;;;1.00;;
14251;SDS011;7210;51.502;10.722;2022-10-16T14:42:58;0.90;;;0.90;;
14251;SDS011;7210;51.502;10.722;2022-10-16T14:45:28;1.60;;;1.50;;
14251;SDS011;7210;51.502;10.722;2022-10-16T14:48:02;4.77;;;1.20;;
14251;SDS011;7210;51.502;10.722;2022-10-16T14:50:41;1.70;;;0.90;;
14251;SDS011;7210;51.502;10.722;2022-10-16T14:53:08;0.60;;;0.60;;
14251;SDS011;7210;51.502;10.722;2022-10-16T14:55:38;1.87;;;1.20;;
14251;SDS011;7210;51.502;10.722;2022-10-16T14:58:08;1.23;;;1.00;;
14251;SDS011;7210;51.502;10.722;2022-10-16T15:00:41;2.60;;;1.80;;
14251;SDS011;7210;51.502;10.722;2022-10-16T15:03:10;3.77;;;1.20;;
14251;SDS011;7210;51.502;10.722;2022-10-16T15:05:38;1.00;;;0.90;;
14251;SDS011;7210;51.502;10.722;2022-10-16T15:08:06;1.70;;;1.40;;
14251;SDS011;7210;51.502;10.722;2022-10-16T15:10:38;2.87;;;1.80;;
14251;SDS011;7210;51.502;10.722;2022-10-16T15:13:10;2.90;;;2.70;;
14251;SDS011;7210;51.502;10.722;2022-10-16T15:15:41;3.10;;;2.80;;
14251;SDS011;7210;51.502;10.722;2022-10-16T15:18:12;1.70;;;1.50;;
14251;SDS011;7210;51.502;10.722;2022-10-16T15:20:45;4.33;;;2.07;;
14251;SDS011;7210;51.502;10.722;2022-10-16T15:23:16;3.00;;;2.10;;
14251;SDS011;7210;51.502;10.722;2022-10-16T15:25:45;4.00;;;2.30;;
14251;SDS011;7210;51.502;10.722;2022-10-16T15:28:15;2.57;;;2.17;;